sensor_id;sensor_type;location;lat;lon;timestamp;pressure;altitude;pressure_sealevel;temperature;humidity
45327;BME280;31062;49.678;24.560;2023-04-02T00:06:35;96965.91;;;10.57;73.43
45327;BME280;31062;49.678;24.560;2023-04-02T00:09:35;96701.56;;;8.89;73.25
45327;BME280;31062;49.678;24.560;2023-04-02T00:12:22;96947.75;;;10.54;73.29
45327;BME280;31062;49.678;24.560;2023-04-02T00:15:11;96889.41;;;10.03;73.38
45327;BME280;31062;49.678;24.560;2023-04-02T00:17:58;96786.50;;;9.47;73.11
45327;BME280;31062;49.678;24.560;2023-04-02T00:20:48;96907.69;;;10.08;73.13
45327;BME280;31062;49.678;24.560;2023-04-02T00:23:37;96938.47;;;10.49;73.15
45327;BME280;31062;49.678;24.560;2023-04-02T00:26:37;96915.63;;;10.26;73.15
45327;BME280;31062;49.678;24.560;2023-04-02T00:29:25;96928.06;;;10.25;73.27
45327;BME280;31062;49.678;24.560;2023-04-02T00:32:17;96928.66;;;10.23;73.06
45327;BME280;31062;49.678;24.560;2023-04-02T00:35:18;96810.06;;;9.48;73.31
45327;BME280;31062;49.678;24.560;2023-04-02T00:38:05;96814.41;;;9.39;73.11
45327;BME280;31062;49.678;24.560;2023-04-02T00:40:54;96823.06;;;9.33;73.38
45327;BME280;31062;49.678;24.560;2023-04-02T00:43:43;96917.59;;;10.11;73.29
45327;BME280;31062;49.678;24.560;2023-04-02T00:46:38;96773.53;;;9.02;73.35
45327;BME280;31062;49.678;24.560;2023-04-02T00:49:35;96779.78;;;9.03;73.24
45327;BME280;31062;49.678;24.560;2023-04-02T00:52:23;96962.72;;;10.26;73.46
45327;BME280;31062;49.678;24.560;2023-04-02T00:55:36;96951.53;;;10.23;73.32
45327;BME280;31062;49.678;24.560;2023-04-02T00:58:33;96951.53;;;10.23;73.42
45327;BME280;31062;49.678;24.560;2023-04-02T01:01:27;96948.41;;;10.17;73.14
45327;BME280;31062;49.678;24.560;2023-04-02T01:04:37;96957.81;;;10.24;73.10
45327;BME280;31062;49.678;24.560;2023-04-02T01:11:01;96962.38;;;10.19;72.89
45327;BME280;31062;49.678;24.560;2023-04-02T01:14:24;96960.94;;;10.18;72.92
45327;BME280;31062;49.678;24.560;2023-04-02T01:24:06;96915.69;;;9.79;72.17
45327;BME280;31062;49.678;24.560;2023-04-02T01:27:01;96957.81;;;10.01;72.67
45327;BME280;31062;49.678;24.560;2023-04-02T01:29:53;96965.25;;;9.98;72.67
45327;BME280;31062;49.678;24.560;2023-04-02T01:32:41;96957.09;;;9.89;72.59
45327;BME280;31062;49.678;24.560;2023-04-02T01:35:31;96949.16;;;9.83;72.97
45327;BME280;31062;49.678;24.560;2023-04-02T01:38:38;96779.38;;;8.50;72.74
45327;BME280;31062;49.678;24.560;2023-04-02T01:41:32;96795.09;;;8.59;72.99
45327;BME280;31062;49.678;24.560;2023-04-02T01:44:28;96901.69;;;9.30;72.65
45327;BME280;31062;49.678;24.560;2023-04-02T01:47:21;96955.50;;;9.74;73.08
45327;BME280;31062;49.678;24.560;2023-04-02T01:50:33;96939.97;;;9.46;72.44
45327;BME280;31062;49.678;24.560;2023-04-02T01:53:23;96808.91;;;8.59;72.33
45327;BME280;31062;49.678;24.560;2023-04-02T01:56:09;96828.25;;;8.59;72.43
45327;BME280;31062;49.678;24.560;2023-04-02T01:58:56;97004.94;;;9.56;72.58
45327;BME280;31062;49.678;24.560;2023-04-02T02:01:49;96919.47;;;9.04;72.91
45327;BME280;31062;49.678;24.560;2023-04-02T02:04:37;96949.03;;;9.13;73.47
45327;BME280;31062;49.678;24.560;2023-04-02T02:07:25;96922.63;;;8.89;73.70
45327;BME280;31062;49.678;24.560;2023-04-02T02:10:19;96982.75;;;9.33;74.20
45327;BME280;31062;49.678;24.560;2023-04-02T02:13:06;96969.03;;;9.23;74.12
45327;BME280;31062;49.678;24.560;2023-04-02T02:15:57;96808.25;;;8.16;74.22
45327;BME280;31062;49.678;24.560;2023-04-02T02:18:45;96910.56;;;8.73;73.67
45327;BME280;31062;49.678;24.560;2023-04-02T02:21:46;96853.41;;;8.42;73.71
45327;BME280;31062;49.678;24.560;2023-04-02T02:24:35;96845.00;;;8.40;73.67
45327;BME280;31062;49.678;24.560;2023-04-02T02:30:29;96989.00;;;9.33;74.39
45327;BME280;31062;49.678;24.560;2023-04-02T02:33:19;96989.50;;;9.41;74.34
45327;BME280;31062;49.678;24.560;2023-04-02T02:36:27;96994.56;;;9.45;74.19
45327;BME280;31062;49.678;24.560;2023-04-02T02:39:28;97017.88;;;9.42;74.36
45327;BME280;31062;49.678;24.560;2023-04-02T02:45:15;96789.94;;;8.00;74.64
45327;BME280;31062;49.678;24.560;2023-04-02T02:48:04;96969.28;;;9.27;74.67
45327;BME280;31062;49.678;24.560;2023-04-02T02:50:55;96952.19;;;9.19;74.83
45327;BME280;31062;49.678;24.560;2023-04-02T02:53:47;97024.13;;;9.42;74.46
45327;BME280;31062;49.678;24.560;2023-04-02T02:56:39;97001.91;;;9.40;73.99
45327;BME280;31062;49.678;24.560;2023-04-02T02:59:29;96966.56;;;9.06;74.03
45327;BME280;31062;49.678;24.560;2023-04-02T03:02:17;96907.03;;;8.60;74.56
45327;BME280;31062;49.678;24.560;2023-04-02T03:05:04;96986.09;;;9.20;74.80
45327;BME280;31062;49.678;24.560;2023-04-02T03:07:52;97006.91;;;9.32;75.08
45327;BME280;31062;49.678;24.560;2023-04-02T03:10:49;96999.84;;;9.29;74.77
45327;BME280;31062;49.678;24.560;2023-04-02T03:13:42;97036.13;;;9.35;75.19
45327;BME280;31062;49.678;24.560;2023-04-02T03:16:37;96849.22;;;8.20;75.70
45327;BME280;31062;49.678;24.560;2023-04-02T03:32:18;97024.09;;;9.64;75.44
45327;BME280;31062;49.678;24.560;2023-04-02T03:35:19;97025.50;;;9.53;75.43
45327;BME280;31062;49.678;24.560;2023-04-02T03:38:23;96868.34;;;8.49;75.19
45327;BME280;31062;49.678;24.560;2023-04-02T03:44:27;97064.88;;;9.75;75.76
45327;BME280;31062;49.678;24.560;2023-04-02T03:50:19;97062.72;;;9.73;75.74
45327;BME280;31062;49.678;24.560;2023-04-02T03:53:11;96886.59;;;8.54;76.01
45327;BME280;31062;49.678;24.560;2023-04-02T03:55:58;97018.88;;;9.47;75.97
45327;BME280;31062;49.678;24.560;2023-04-02T03:58:51;96895.22;;;8.48;76.34
45327;BME280;31062;49.678;24.560;2023-04-02T04:01:52;97080.97;;;9.67;76.79
45327;BME280;31062;49.678;24.560;2023-04-02T04:04:43;96978.56;;;8.99;77.58
45327;BME280;31062;49.678;24.560;2023-04-02T04:07:40;97008.94;;;9.20;78.09
45327;BME280;31062;49.678;24.560;2023-04-02T04:10:28;96922.69;;;8.46;78.21
45327;BME280;31062;49.678;24.560;2023-04-02T04:13:19;97053.00;;;9.39;78.57
45327;BME280;31062;49.678;24.560;2023-04-02T04:16:11;96867.91;;;8.10;78.60
45327;BME280;31062;49.678;24.560;2023-04-02T04:19:03;96904.03;;;8.35;79.01
45327;BME280;31062;49.678;24.560;2023-04-02T04:21:52;97059.03;;;9.48;79.83
45327;BME280;31062;49.678;24.560;2023-04-02T04:24:47;97006.47;;;9.03;79.51
45327;BME280;31062;49.678;24.560;2023-04-02T04:27:47;97066.28;;;9.53;79.94
45327;BME280;31062;49.678;24.560;2023-04-02T04:30:47;96898.06;;;8.39;79.50
45327;BME280;31062;49.678;24.560;2023-04-02T04:33:43;97049.03;;;9.42;80.01
45327;BME280;31062;49.678;24.560;2023-04-02T04:37:38;97082.78;;;9.62;80.05
45327;BME280;31062;49.678;24.560;2023-04-02T04:40:24;96907.09;;;8.39;79.90
45327;BME280;31062;49.678;24.560;2023-04-02T04:43:19;97038.56;;;9.29;80.28
45327;BME280;31062;49.678;24.560;2023-04-02T04:46:13;96997.97;;;8.89;80.45
45327;BME280;31062;49.678;24.560;2023-04-02T04:49:08;97105.25;;;9.57;80.45
45327;BME280;31062;49.678;24.560;2023-04-02T04:51:59;96943.50;;;8.47;80.42
45327;BME280;31062;49.678;24.560;2023-04-02T04:54:51;96915.72;;;8.24;81.19
45327;BME280;31062;49.678;24.560;2023-04-02T04:57:41;96993.31;;;8.71;81.24
45327;BME280;31062;49.678;24.560;2023-04-02T05:00:42;97114.97;;;9.46;81.49
45327;BME280;31062;49.678;24.560;2023-04-02T05:04:04;97126.63;;;9.45;81.97
45327;BME280;31062;49.678;24.560;2023-04-02T05:06:59;97057.00;;;9.15;81.92
45327;BME280;31062;49.678;24.560;2023-04-02T05:10:03;97112.41;;;9.38;82.19
45327;BME280;31062;49.678;24.560;2023-04-02T05:13:00;97022.69;;;8.76;82.18
45327;BME280;31062;49.678;24.560;2023-04-02T05:15:54;96944.44;;;8.09;82.07
45327;BME280;31062;49.678;24.560;2023-04-02T05:18:51;97022.94;;;8.80;82.51
45327;BME280;31062;49.678;24.560;2023-04-02T05:25:34;97103.72;;;9.32;82.75
45327;BME280;31062;49.678;24.560;2023-04-02T05:28:42;97108.28;;;9.28;83.17
45327;BME280;31062;49.678;24.560;2023-04-02T05:31:41;97068.19;;;8.96;82.91
45327;BME280;31062;49.678;24.560;2023-04-02T05:34:35;97073.97;;;9.00;83.36
45327;BME280;31062;49.678;24.560;2023-04-02T05:37:27;97103.19;;;9.24;83.10
45327;BME280;31062;49.678;24.560;2023-04-02T05:40:25;96990.03;;;8.41;83.33
45327;BME280;31062;49.678;24.560;2023-04-02T05:43:16;97112.16;;;9.34;82.61
45327;BME280;31062;49.678;24.560;2023-04-02T05:46:12;97080.69;;;9.18;82.84
45327;BME280;31062;49.678;24.560;2023-04-02T05:48:59;97117.22;;;9.38;83.06
45327;BME280;31062;49.678;24.560;2023-04-02T05:51:48;96963.88;;;8.42;83.07
45327;BME280;31062;49.678;24.560;2023-04-02T05:54:43;97124.50;;;9.55;82.79
45327;BME280;31062;49.678;24.560;2023-04-02T05:57:37;97063.06;;;9.23;83.17
45327;BME280;31062;49.678;24.560;2023-04-02T06:09:23;97097.50;;;9.43;82.19
45327;BME280;31062;49.678;24.560;2023-04-02T06:14:59;97106.00;;;9.57;82.27
45327;BME280;31062;49.678;24.560;2023-04-02T06:17:58;97145.22;;;9.65;82.42
45327;BME280;31062;49.678;24.560;2023-04-02T06:20:44;97122.38;;;9.65;82.17
45327;BME280;31062;49.678;24.560;2023-04-02T06:23:39;96999.63;;;8.83;82.55
45327;BME280;31062;49.678;24.560;2023-04-02T06:26:40;96982.03;;;8.67;82.42
45327;BME280;31062;49.678;24.560;2023-04-02T06:29:37;97001.09;;;8.84;82.03
45327;BME280;31062;49.678;24.560;2023-04-02T06:32:31;97056.53;;;9.19;81.88
45327;BME280;31062;49.678;24.560;2023-04-02T06:35:17;97141.19;;;9.78;81.85
45327;BME280;31062;49.678;24.560;2023-04-02T06:38:16;96995.69;;;8.65;81.41
45327;BME280;31062;49.678;24.560;2023-04-02T06:41:19;97025.38;;;8.85;81.98
45327;BME280;31062;49.678;24.560;2023-04-02T06:44:36;97180.59;;;9.88;81.98
45327;BME280;31062;49.678;24.560;2023-04-02T06:47:45;97130.03;;;9.55;81.79
45327;BME280;31062;49.678;24.560;2023-04-02T06:51:08;97189.34;;;9.84;81.96
45327;BME280;31062;49.678;24.560;2023-04-02T06:53:56;97027.53;;;8.66;81.62
45327;BME280;31062;49.678;24.560;2023-04-02T06:56:49;97055.84;;;8.76;81.75
45327;BME280;31062;49.678;24.560;2023-04-02T06:59:43;97084.38;;;8.90;82.14
45327;BME280;31062;49.678;24.560;2023-04-02T07:02:38;97043.94;;;8.52;81.78
45327;BME280;31062;49.678;24.560;2023-04-02T07:05:27;97061.19;;;8.52;81.59
45327;BME280;31062;49.678;24.560;2023-04-02T07:08:12;97109.91;;;8.79;82.17
45327;BME280;31062;49.678;24.560;2023-04-02T07:10:57;97180.09;;;9.16;82.09
45327;BME280;31062;49.678;24.560;2023-04-02T07:13:44;97217.50;;;9.38;82.70
45327;BME280;31062;49.678;24.560;2023-04-02T07:16:32;97147.94;;;8.69;83.00
45327;BME280;31062;49.678;24.560;2023-04-02T07:19:20;97114.19;;;8.39;83.03
45327;BME280;31062;49.678;24.560;2023-04-02T07:22:11;97177.44;;;8.76;83.36
45327;BME280;31062;49.678;24.560;2023-04-02T07:24:58;97251.03;;;9.02;83.52
45327;BME280;31062;49.678;24.560;2023-04-02T07:27:44;97231.84;;;8.94;83.89
45327;BME280;31062;49.678;24.560;2023-04-02T07:30:29;97065.28;;;7.70;84.01
45327;BME280;31062;49.678;24.560;2023-04-02T07:33:17;97276.81;;;8.95;84.18
45327;BME280;31062;49.678;24.560;2023-04-02T07:36:05;97198.72;;;8.64;83.91
45327;BME280;31062;49.678;24.560;2023-04-02T07:38:51;97171.97;;;8.56;83.43
45327;BME280;31062;49.678;24.560;2023-04-02T07:41:54;97260.53;;;8.99;83.63
45327;BME280;31062;49.678;24.560;2023-04-02T07:44:41;97256.56;;;9.02;83.24
45327;BME280;31062;49.678;24.560;2023-04-02T07:47:27;97256.72;;;9.04;83.04
45327;BME280;31062;49.678;24.560;2023-04-02T07:50:12;97235.50;;;8.97;83.14
45327;BME280;31062;49.678;24.560;2023-04-02T07:52:58;97243.28;;;9.10;82.40
45327;BME280;31062;49.678;24.560;2023-04-02T07:55:44;97098.00;;;8.05;80.74
45327;BME280;31062;49.678;24.560;2023-04-02T07:58:30;97272.13;;;9.07;81.54
45327;BME280;31062;49.678;24.560;2023-04-02T08:01:25;97231.78;;;8.83;82.23
45327;BME280;31062;49.678;24.560;2023-04-02T08:04:17;97218.88;;;8.76;82.07
45327;BME280;31062;49.678;24.560;2023-04-02T08:07:03;97077.91;;;7.73;82.10
45327;BME280;31062;49.678;24.560;2023-04-02T08:09:49;97277.19;;;9.11;81.29
45327;BME280;31062;49.678;24.560;2023-04-02T08:12:35;97101.69;;;7.88;81.45
45327;BME280;31062;49.678;24.560;2023-04-02T08:15:20;97099.06;;;7.90;81.45
45327;BME280;31062;49.678;24.560;2023-04-02T08:18:06;97266.59;;;9.07;81.23
45327;BME280;31062;49.678;24.560;2023-04-02T08:20:51;97281.09;;;9.17;80.75
45327;BME280;31062;49.678;24.560;2023-04-02T08:23:37;97280.81;;;9.13;80.87
45327;BME280;31062;49.678;24.560;2023-04-02T08:26:23;97223.06;;;8.77;80.39
45327;BME280;31062;49.678;24.560;2023-04-02T08:29:08;97291.44;;;9.17;80.77
45327;BME280;31062;49.678;24.560;2023-04-02T08:31:54;97292.16;;;9.17;81.59
45327;BME280;31062;49.678;24.560;2023-04-02T08:34:42;97231.97;;;8.66;81.09
45327;BME280;31062;49.678;24.560;2023-04-02T08:37:28;97297.41;;;9.13;82.22
45327;BME280;31062;49.678;24.560;2023-04-02T08:40:40;97271.47;;;8.87;82.00
45327;BME280;31062;49.678;24.560;2023-04-02T08:43:40;97289.16;;;9.04;81.66
45327;BME280;31062;49.678;24.560;2023-04-02T08:46:55;97289.50;;;8.88;81.52
45327;BME280;31062;49.678;24.560;2023-04-02T08:49:53;97207.22;;;8.27;80.92
45327;BME280;31062;49.678;24.560;2023-04-02T08:52:41;97312.22;;;8.87;81.03
45327;BME280;31062;49.678;24.560;2023-04-02T09:01:24;97239.94;;;8.11;81.57
45327;BME280;31062;49.678;24.560;2023-04-02T09:04:18;97304.84;;;8.60;81.77
45327;BME280;31062;49.678;24.560;2023-04-02T09:07:05;97226.75;;;7.91;80.62
45327;BME280;31062;49.678;24.560;2023-04-02T09:09:55;97341.75;;;8.75;80.98
45327;BME280;31062;49.678;24.560;2023-04-02T09:12:51;97345.09;;;8.73;80.80
45327;BME280;31062;49.678;24.560;2023-04-02T09:15:38;97303.72;;;8.44;81.02
45327;BME280;31062;49.678;24.560;2023-04-02T09:18:27;97356.16;;;8.73;81.27
45327;BME280;31062;49.678;24.560;2023-04-02T09:24:10;97182.59;;;7.52;81.02
45327;BME280;31062;49.678;24.560;2023-04-02T09:26:56;97169.09;;;7.47;80.64
45327;BME280;31062;49.678;24.560;2023-04-02T09:29:44;97350.94;;;8.68;80.54
45327;BME280;31062;49.678;24.560;2023-04-02T09:32:43;97382.78;;;8.69;80.71
45327;BME280;31062;49.678;24.560;2023-04-02T09:38:35;97325.06;;;8.25;81.62
45327;BME280;31062;49.678;24.560;2023-04-02T09:41:26;97213.94;;;7.47;81.73
45327;BME280;31062;49.678;24.560;2023-04-02T09:47:00;97338.19;;;8.34;82.52
45327;BME280;31062;49.678;24.560;2023-04-02T09:49:48;97373.22;;;8.50;81.78
45327;BME280;31062;49.678;24.560;2023-04-02T09:52:33;97328.56;;;8.15;82.25
45327;BME280;31062;49.678;24.560;2023-04-02T09:55:20;97353.41;;;8.25;82.79
45327;BME280;31062;49.678;24.560;2023-04-02T09:58:15;97198.22;;;7.02;83.87
45327;BME280;31062;49.678;24.560;2023-04-02T10:01:01;97378.41;;;8.27;84.31
45327;BME280;31062;49.678;24.560;2023-04-02T10:03:47;97194.41;;;6.87;84.78
45327;BME280;31062;49.678;24.560;2023-04-02T10:06:34;97335.94;;;7.74;84.75
45327;BME280;31062;49.678;24.560;2023-04-02T10:09:30;97390.03;;;8.16;84.46
45327;BME280;31062;49.678;24.560;2023-04-02T10:12:16;97365.53;;;7.64;84.73
45327;BME280;31062;49.678;24.560;2023-04-02T10:15:03;97365.28;;;7.89;84.98
45327;BME280;31062;49.678;24.560;2023-04-02T10:18:00;97248.41;;;7.10;85.07
45327;BME280;31062;49.678;24.560;2023-04-02T10:20:49;97404.69;;;8.18;85.03
45327;BME280;31062;49.678;24.560;2023-04-02T10:23:37;97344.63;;;7.80;85.01
45327;BME280;31062;49.678;24.560;2023-04-02T10:26:43;97258.56;;;7.17;85.10
45327;BME280;31062;49.678;24.560;2023-04-02T10:41:21;97417.38;;;8.41;82.90
45327;BME280;31062;49.678;24.560;2023-04-02T10:44:29;97242.03;;;7.17;82.51
45327;BME280;31062;49.678;24.560;2023-04-02T10:48:07;97432.50;;;8.49;82.35
45327;BME280;31062;49.678;24.560;2023-04-02T10:50:52;97375.44;;;7.87;82.13
45327;BME280;31062;49.678;24.560;2023-04-02T10:53:56;97255.81;;;7.17;81.87
45327;BME280;31062;49.678;24.560;2023-04-02T10:56:44;97252.03;;;7.12;81.37
45327;BME280;31062;49.678;24.560;2023-04-02T10:59:38;97316.59;;;7.55;82.33
45327;BME280;31062;49.678;24.560;2023-04-02T11:02:34;97468.72;;;8.44;82.21
45327;BME280;31062;49.678;24.560;2023-04-02T11:14:17;97432.47;;;8.20;81.68
45327;BME280;31062;49.678;24.560;2023-04-02T11:17:05;97448.75;;;8.26;82.42
45327;BME280;31062;49.678;24.560;2023-04-02T11:19:50;97412.50;;;7.93;82.59
45327;BME280;31062;49.678;24.560;2023-04-02T11:22:36;97451.34;;;8.24;82.68
45327;BME280;31062;49.678;24.560;2023-04-02T11:25:23;97449.88;;;8.23;81.74
45327;BME280;31062;49.678;24.560;2023-04-02T11:28:29;97474.06;;;8.32;81.93
45327;BME280;31062;49.678;24.560;2023-04-02T11:31:19;97467.91;;;8.24;82.13
45327;BME280;31062;49.678;24.560;2023-04-02T11:34:05;97424.31;;;8.13;82.49
45327;BME280;31062;49.678;24.560;2023-04-02T11:42:42;97313.03;;;7.26;82.08
45327;BME280;31062;49.678;24.560;2023-04-02T11:54:22;97297.41;;;7.02;83.42
45327;BME280;31062;49.678;24.560;2023-04-02T11:57:27;97383.25;;;7.61;84.02
45327;BME280;31062;49.678;24.560;2023-04-02T12:06:36;97503.97;;;8.26;84.63
45327;BME280;31062;49.678;24.560;2023-04-02T12:09:44;97456.25;;;7.97;84.39
45327;BME280;31062;49.678;24.560;2023-04-02T12:12:40;97441.66;;;7.87;84.60
45327;BME280;31062;49.678;24.560;2023-04-02T12:15:39;97492.31;;;8.18;85.32
45327;BME280;31062;49.678;24.560;2023-04-02T12:18:27;97324.66;;;6.97;84.88
45327;BME280;31062;49.678;24.560;2023-04-02T12:21:21;97465.75;;;7.76;85.38
45327;BME280;31062;49.678;24.560;2023-04-02T12:24:21;97523.22;;;8.07;85.36
45327;BME280;31062;49.678;24.560;2023-04-02T12:27:20;97488.50;;;8.04;85.44
45327;BME280;31062;49.678;24.560;2023-04-02T12:30:30;97486.44;;;7.95;85.57
45327;BME280;31062;49.678;24.560;2023-04-02T12:38:58;97415.81;;;7.46;86.22
45327;BME280;31062;49.678;24.560;2023-04-02T12:41:43;97446.50;;;7.59;86.54
45327;BME280;31062;49.678;24.560;2023-04-02T12:44:29;97468.28;;;7.55;86.47
45327;BME280;31062;49.678;24.560;2023-04-02T12:47:16;97246.16;;;6.08;85.71
45327;BME280;31062;49.678;24.560;2023-04-02T12:50:02;97311.50;;;6.52;86.55
45327;BME280;31062;49.678;24.560;2023-04-02T12:52:52;97326.91;;;6.55;87.54
45327;BME280;31062;49.678;24.560;2023-04-02T12:55:46;97513.41;;;7.87;86.88
45327;BME280;31062;49.678;24.560;2023-04-02T13:01:24;97514.69;;;7.76;86.02
45327;BME280;31062;49.678;24.560;2023-04-02T13:04:12;97491.28;;;7.67;86.45
45327;BME280;31062;49.678;24.560;2023-04-02T13:06:58;97537.69;;;7.88;85.78
45327;BME280;31062;49.678;24.560;2023-04-02T13:09:47;97345.97;;;6.70;85.51
45327;BME280;31062;49.678;24.560;2023-04-02T13:12:37;97525.81;;;7.95;85.67
45327;BME280;31062;49.678;24.560;2023-04-02T13:18:21;97461.16;;;7.52;85.37
45327;BME280;31062;49.678;24.560;2023-04-02T13:23:59;97341.28;;;6.63;84.94
45327;BME280;31062;49.678;24.560;2023-04-02T13:26:45;97470.50;;;7.39;85.09
45327;BME280;31062;49.678;24.560;2023-04-02T13:29:34;97535.50;;;7.87;84.95
45327;BME280;31062;49.678;24.560;2023-04-02T13:32:20;97334.94;;;6.43;85.24
45327;BME280;31062;49.678;24.560;2023-04-02T13:35:06;97534.16;;;7.78;86.06
45327;BME280;31062;49.678;24.560;2023-04-02T13:37:52;97544.47;;;7.77;85.54
45327;BME280;31062;49.678;24.560;2023-04-02T13:40:37;97395.38;;;6.68;84.91
45327;BME280;31062;49.678;24.560;2023-04-02T13:43:23;97358.50;;;6.37;85.38
45327;BME280;31062;49.678;24.560;2023-04-02T13:46:16;97481.03;;;7.24;85.04
45327;BME280;31062;49.678;24.560;2023-04-02T13:49:03;97365.78;;;6.42;85.00
45327;BME280;31062;49.678;24.560;2023-04-02T13:51:56;97405.66;;;6.68;84.88
45327;BME280;31062;49.678;24.560;2023-04-02T13:54:48;97489.00;;;7.20;85.21
45327;BME280;31062;49.678;24.560;2023-04-02T13:57:35;97546.84;;;7.64;85.60
45327;BME280;31062;49.678;24.560;2023-04-02T14:00:21;97529.81;;;7.31;85.33
45327;BME280;31062;49.678;24.560;2023-04-02T14:03:11;97419.13;;;6.64;84.92
45327;BME280;31062;49.678;24.560;2023-04-02T14:09:20;97560.66;;;7.64;84.98
45327;BME280;31062;49.678;24.560;2023-04-02T14:15:18;97458.78;;;6.95;85.27
45327;BME280;31062;49.678;24.560;2023-04-02T14:18:36;97565.16;;;7.69;85.21
45327;BME280;31062;49.678;24.560;2023-04-02T14:25:16;97582.47;;;7.69;84.18
45327;BME280;31062;49.678;24.560;2023-04-02T14:42:34;97373.47;;;6.09;84.42
45327;BME280;31062;49.678;24.560;2023-04-02T14:48:18;97603.59;;;7.40;84.82
45327;BME280;31062;49.678;24.560;2023-04-02T14:54:33;97486.75;;;6.57;84.84
45327;BME280;31062;49.678;24.560;2023-04-02T14:57:28;97435.09;;;6.31;84.67
45327;BME280;31062;49.678;24.560;2023-04-02T15:01:08;97583.34;;;7.28;85.24
45327;BME280;31062;49.678;24.560;2023-04-02T15:04:05;97400.72;;;5.97;84.55
45327;BME280;31062;49.678;24.560;2023-04-02T15:06:58;97541.53;;;6.87;84.10
45327;BME280;31062;49.678;24.560;2023-04-02T15:09:52;97386.75;;;5.78;84.19
45327;BME280;31062;49.678;24.560;2023-04-02T15:12:39;97579.13;;;7.10;84.92
45327;BME280;31062;49.678;24.560;2023-04-02T15:15:41;97607.03;;;7.14;85.19
45327;BME280;31062;49.678;24.560;2023-04-02T15:18:28;97567.31;;;6.82;85.42
45327;BME280;31062;49.678;24.560;2023-04-02T15:24:16;97595.97;;;6.79;87.22
45327;BME280;31062;49.678;24.560;2023-04-02T15:30:23;97517.97;;;6.18;87.05
45327;BME280;31062;49.678;24.560;2023-04-02T15:39:28;97653.19;;;6.71;86.85
45327;BME280;31062;49.678;24.560;2023-04-02T15:42:21;97576.13;;;6.39;86.56
45327;BME280;31062;49.678;24.560;2023-04-02T15:57:50;97655.78;;;6.86;85.77
45327;BME280;31062;49.678;24.560;2023-04-02T16:03:48;97662.09;;;6.79;85.36
45327;BME280;31062;49.678;24.560;2023-04-02T16:12:51;97666.66;;;6.60;84.98
45327;BME280;31062;49.678;24.560;2023-04-02T16:15:43;97661.38;;;6.54;84.15
45327;BME280;31062;49.678;24.560;2023-04-02T16:19:02;97581.47;;;5.87;84.45
45327;BME280;31062;49.678;24.560;2023-04-02T16:22:11;97601.03;;;5.99;84.35
45327;BME280;31062;49.678;24.560;2023-04-02T16:25:12;97603.22;;;6.00;83.86
45327;BME280;31062;49.678;24.560;2023-04-02T16:28:10;97706.00;;;6.52;83.77
45327;BME280;31062;49.678;24.560;2023-04-02T16:34:06;97541.91;;;5.43;84.47
45327;BME280;31062;49.678;24.560;2023-04-02T16:46:11;97708.25;;;6.46;84.52
45327;BME280;31062;49.678;24.560;2023-04-02T16:49:16;97734.66;;;6.49;84.42
45327;BME280;31062;49.678;24.560;2023-04-02T16:52:13;97734.28;;;6.53;83.98
45327;BME280;31062;49.678;24.560;2023-04-02T16:55:21;97497.34;;;5.12;83.90
45327;BME280;31062;49.678;24.560;2023-04-02T17:07:34;97770.00;;;6.36;84.46
45327;BME280;31062;49.678;24.560;2023-04-02T17:10:30;97682.16;;;5.83;83.81
45327;BME280;31062;49.678;24.560;2023-04-02T17:13:41;97736.94;;;6.36;83.31
45327;BME280;31062;49.678;24.560;2023-04-02T17:16:34;97680.84;;;5.91;83.61
45327;BME280;31062;49.678;24.560;2023-04-02T17:19:23;97602.03;;;5.39;83.74
45327;BME280;31062;49.678;24.560;2023-04-02T17:22:16;97743.56;;;6.33;83.96
45327;BME280;31062;49.678;24.560;2023-04-02T17:25:03;97541.75;;;4.93;83.87
45327;BME280;31062;49.678;24.560;2023-04-02T17:27:52;97711.38;;;6.10;84.20
45327;BME280;31062;49.678;24.560;2023-04-02T17:30:42;97778.47;;;6.23;84.94
45327;BME280;31062;49.678;24.560;2023-04-02T17:33:29;97767.88;;;6.19;85.20
45327;BME280;31062;49.678;24.560;2023-04-02T17:39:15;97763.13;;;6.12;85.23
45327;BME280;31062;49.678;24.560;2023-04-02T17:45:27;97734.97;;;5.81;85.33
45327;BME280;31062;49.678;24.560;2023-04-02T17:51:34;97766.50;;;5.95;83.97
45327;BME280;31062;49.678;24.560;2023-04-02T18:01:11;97776.41;;;5.91;84.60
45327;BME280;31062;49.678;24.560;2023-04-02T18:04:16;97605.31;;;4.67;84.25
45327;BME280;31062;49.678;24.560;2023-04-02T18:10:29;97775.28;;;5.86;84.34
45327;BME280;31062;49.678;24.560;2023-04-02T18:13:32;97780.06;;;5.86;84.71
45327;BME280;31062;49.678;24.560;2023-04-02T18:19:39;97615.22;;;4.70;84.26
45327;BME280;31062;49.678;24.560;2023-04-02T18:25:49;97602.59;;;4.51;84.85
45327;BME280;31062;49.678;24.560;2023-04-02T18:41:37;97804.66;;;5.76;84.35
45327;BME280;31062;49.678;24.560;2023-04-02T18:47:37;97843.91;;;5.69;84.09
45327;BME280;31062;49.678;24.560;2023-04-02T18:50:34;97803.78;;;5.66;84.56
45327;BME280;31062;49.678;24.560;2023-04-02T18:53:24;97765.88;;;5.42;84.58
45327;BME280;31062;49.678;24.560;2023-04-02T18:56:15;97752.50;;;5.15;83.68
45327;BME280;31062;49.678;24.560;2023-04-02T18:59:30;97814.91;;;5.83;83.79
45327;BME280;31062;49.678;24.560;2023-04-02T19:02:43;97760.72;;;5.46;83.52
45327;BME280;31062;49.678;24.560;2023-04-02T19:05:38;97837.66;;;5.84;84.37
45327;BME280;31062;49.678;24.560;2023-04-02T19:08:33;97619.97;;;4.46;83.94
45327;BME280;31062;49.678;24.560;2023-04-02T19:11:22;97733.25;;;5.23;84.00
45327;BME280;31062;49.678;24.560;2023-04-02T19:14:18;97817.47;;;5.81;83.49
45327;BME280;31062;49.678;24.560;2023-04-02T19:17:15;97810.50;;;5.72;83.85
45327;BME280;31062;49.678;24.560;2023-04-02T19:23:21;97753.03;;;5.29;84.29
45327;BME280;31062;49.678;24.560;2023-04-02T19:26:15;97606.97;;;4.24;84.31
45327;BME280;31062;49.678;24.560;2023-04-02T19:35:46;97839.53;;;5.66;84.32
45327;BME280;31062;49.678;24.560;2023-04-02T19:44:56;97791.16;;;5.17;84.83
45327;BME280;31062;49.678;24.560;2023-04-02T19:47:41;97803.22;;;5.45;84.65
45327;BME280;31062;49.678;24.560;2023-04-02T19:50:27;97698.66;;;4.67;85.12